createdAt,value
2022-10-04T00:00:29.355Z,10.10
2022-10-04T00:05:32.562Z,10.10
2022-10-04T00:10:35.500Z,10.10
2022-10-04T00:15:39.434Z,10.10
2022-10-04T00:20:50.982Z,10.20
2022-10-04T00:26:00.555Z,10.20
2022-10-04T00:31:16.685Z,10.20
2022-10-04T00:36:25.489Z,10.20
2022-10-04T00:41:34.549Z,10.20
2022-10-04T00:46:41.345Z,10.10
2022-10-04T00:51:51.363Z,10.10
2022-10-04T00:57:05.074Z,10.10
2022-10-04T01:02:29.255Z,10.10
2022-10-04T01:07:43.791Z,10.10
2022-10-04T01:13:09.304Z,10.10
2022-10-04T01:18:21.269Z,10.10
2022-10-04T01:23:43.791Z,10.10
2022-10-04T01:28:46.773Z,10.00
2022-10-04T01:33:49.638Z,10.00
2022-10-04T01:38:52.533Z,10.10
2022-10-04T01:44:00.587Z,10.10
2022-10-04T01:49:11.762Z,10.10
2022-10-04T01:54:31.744Z,10.10
2022-10-04T01:59:47.222Z,10.10
2022-10-04T02:04:58.398Z,10.10
2022-10-04T02:10:06.481Z,10.10
2022-10-04T02:15:11.774Z,10.10
2022-10-04T02:20:18.600Z,10.20
2022-10-04T02:25:21.852Z,10.10
2022-10-04T02:30:35.639Z,10.00
2022-10-04T02:35:45.214Z,10.10
2022-10-04T02:41:12.834Z,10.10
2022-10-04T02:46:28.447Z,10.00
2022-10-04T02:51:49.685Z,9.90
2022-10-04T02:56:56.026Z,9.80
2022-10-04T03:02:00.979Z,9.70
2022-10-04T03:07:08.444Z,9.70
2022-10-04T03:12:12.914Z,9.70
2022-10-04T03:17:17.396Z,9.60
2022-10-04T03:22:20.513Z,9.70
2022-10-04T03:27:27.307Z,9.70
2022-10-04T03:32:30.976Z,9.60
2022-10-04T03:37:38.026Z,9.70
2022-10-04T03:42:41.194Z,9.60
2022-10-04T03:47:48.373Z,9.60
2022-10-04T03:53:03.636Z,9.50
2022-10-04T03:58:07.485Z,9.50
2022-10-04T04:03:19.439Z,9.50
2022-10-04T04:08:35.079Z,9.50
2022-10-04T04:14:12.415Z,9.50
2022-10-04T04:19:19.803Z,9.50
2022-10-04T04:24:32.377Z,9.50
2022-10-04T04:29:53.737Z,9.60
2022-10-04T04:35:07.300Z,9.60
2022-10-04T04:40:28.073Z,9.60
2022-10-04T04:45:33.036Z,9.70
2022-10-04T04:50:39.743Z,9.70
2022-10-04T04:56:03.244Z,9.70
2022-10-04T05:01:29.202Z,9.70
2022-10-04T05:06:34.547Z,9.80
2022-10-04T05:11:39.624Z,9.80
2022-10-04T05:16:47.947Z,9.90
2022-10-04T05:21:53.524Z,9.90
2022-10-04T05:27:01.174Z,10.00
2022-10-04T05:32:29.274Z,10.10
2022-10-04T05:38:03.098Z,10.10
2022-10-04T05:43:23.114Z,10.20
2022-10-04T05:48:26.713Z,10.30
2022-10-04T05:53:34.379Z,10.30
2022-10-04T05:59:08.294Z,10.40
2022-10-04T06:04:57.467Z,10.50
2022-10-04T06:10:35.274Z,10.50
2022-10-04T06:16:13.215Z,10.60
2022-10-04T06:21:20.583Z,10.60
2022-10-04T06:26:31.392Z,10.70
2022-10-04T06:31:57.291Z,10.80
2022-10-04T06:37:23.403Z,10.90
2022-10-04T06:43:04.758Z,11.00
2022-10-04T06:48:26.013Z,11.00
2022-10-04T06:53:43.925Z,11.10
2022-10-04T06:59:08.557Z,11.20
2022-10-04T07:04:41.097Z,11.10
2022-10-04T07:10:27.869Z,11.30
2022-10-04T07:16:22.869Z,11.40
2022-10-04T07:21:50.121Z,11.60
2022-10-04T07:26:55.451Z,11.60
2022-10-04T07:32:14.565Z,11.50
2022-10-04T07:37:18.323Z,11.50
2022-10-04T07:42:33.764Z,11.50
2022-10-04T07:47:36.998Z,11.50
2022-10-04T07:53:09.831Z,11.50
2022-10-04T07:58:45.376Z,11.50
2022-10-04T08:04:51.923Z,11.70
2022-10-04T08:10:03.154Z,11.70
2022-10-04T08:15:14.632Z,11.70
2022-10-04T08:20:36.352Z,11.60
2022-10-04T08:26:08.223Z,11.90
2022-10-04T08:31:44.794Z,11.70
2022-10-04T08:37:14.277Z,11.90
2022-10-04T08:42:34.774Z,11.90
2022-10-04T08:48:08.603Z,12.20
2022-10-04T08:53:45.353Z,12.10
2022-10-04T08:59:07.288Z,12.20
2022-10-04T09:04:37.525Z,12.30
2022-10-04T09:10:15.444Z,12.30
2022-10-04T09:15:37.905Z,12.30
2022-10-04T09:20:51.861Z,12.40
2022-10-04T09:26:13.513Z,12.50
2022-10-04T09:31:45.988Z,12.50
2022-10-04T09:37:23.548Z,12.50
2022-10-04T09:43:03.394Z,12.40
2022-10-04T09:48:27.835Z,12.70
2022-10-04T09:53:46.625Z,13.00
2022-10-04T09:58:59.045Z,13.20
2022-10-04T10:04:28.714Z,13.50
2022-10-04T10:10:10.704Z,13.50
2022-10-04T10:15:16.598Z,13.90
2022-10-04T10:21:02.521Z,16.20
2022-10-04T10:26:14.062Z,14.70
2022-10-04T10:31:48.327Z,13.90
2022-10-04T10:37:16.353Z,13.50
2022-10-04T10:42:54.562Z,13.30
2022-10-04T10:48:02.034Z,14.80
2022-10-04T10:53:45.573Z,17.30
2022-10-04T10:59:18.746Z,15.70
2022-10-04T11:04:55.655Z,15.40
2022-10-04T11:10:39.284Z,15.40
2022-10-04T11:16:21.653Z,15.80
2022-10-04T11:21:54.111Z,16.40
2022-10-04T11:27:11.636Z,16.00
2022-10-04T11:32:37.765Z,15.80
2022-10-04T11:38:00.047Z,16.90
2022-10-04T11:43:38.339Z,17.10
2022-10-04T11:49:09.443Z,15.70
2022-10-04T11:54:27.793Z,14.90
2022-10-04T11:59:52.834Z,14.70
2022-10-04T12:05:12.314Z,14.60
2022-10-04T12:10:21.054Z,14.40
2022-10-04T12:15:39.344Z,14.70
2022-10-04T12:20:53.454Z,14.50
2022-10-04T12:26:32.988Z,14.40
2022-10-04T12:31:50.360Z,16.30
2022-10-04T12:37:26.170Z,16.20
2022-10-04T12:42:51.360Z,15.80
2022-10-04T12:48:06.294Z,15.60
2022-10-04T12:53:34.788Z,16.40
2022-10-04T12:58:46.360Z,15.70
2022-10-04T13:03:55.468Z,17.60
2022-10-04T13:09:13.475Z,18.20
2022-10-04T13:14:40.148Z,19.30
2022-10-04T13:20:01.221Z,18.80
2022-10-04T13:25:28.646Z,18.00
2022-10-04T13:30:49.974Z,18.00
2022-10-04T13:36:07.843Z,17.00
2022-10-04T13:41:25.922Z,18.20
2022-10-04T13:46:47.683Z,18.80
2022-10-04T13:52:21.070Z,19.10
2022-10-04T13:57:55.034Z,19.00
2022-10-04T14:03:25.825Z,18.90
2022-10-04T14:08:36.952Z,18.90
2022-10-04T14:13:57.789Z,18.30
2022-10-04T14:19:04.134Z,18.30
2022-10-04T14:24:46.975Z,17.90
2022-10-04T14:30:18.932Z,18.10
2022-10-04T14:35:28.343Z,17.50
2022-10-04T14:40:31.046Z,17.10
2022-10-04T14:46:10.157Z,17.40
2022-10-04T14:51:44.231Z,17.60
2022-10-04T14:56:59.500Z,17.10
2022-10-04T15:02:12.704Z,17.60
2022-10-04T15:07:21.909Z,17.30
2022-10-04T15:13:10.345Z,17.00
2022-10-04T15:18:44.247Z,16.40
2022-10-04T15:23:55.315Z,15.90
2022-10-04T15:29:24.451Z,15.30
2022-10-04T15:34:36.472Z,14.80
2022-10-04T15:39:44.965Z,14.50
2022-10-04T15:45:18.192Z,14.10
2022-10-04T15:50:21.594Z,13.60
2022-10-04T15:55:50.579Z,13.20
2022-10-04T16:01:20.527Z,12.50
2022-10-04T16:06:27.864Z,11.80
2022-10-04T16:11:58.279Z,11.30
2022-10-04T16:17:02.423Z,11.00
2022-10-04T16:22:18.532Z,10.60
2022-10-04T16:27:37.138Z,10.20
2022-10-04T16:32:46.021Z,9.90
2022-10-04T16:38:19.462Z,9.70
2022-10-04T16:43:28.744Z,9.50
2022-10-04T16:48:56.619Z,9.50
2022-10-04T16:54:11.372Z,9.20
2022-10-04T16:59:14.283Z,9.00
2022-10-04T17:04:25.799Z,8.80
2022-10-04T17:09:48.441Z,8.60
2022-10-04T17:15:16.786Z,8.60
2022-10-04T17:20:38.513Z,8.50
2022-10-04T17:26:06.102Z,8.40
2022-10-04T17:31:33.669Z,8.40
2022-10-04T17:36:39.543Z,8.30
2022-10-04T17:42:07.149Z,8.30
2022-10-04T17:47:54.163Z,8.30
2022-10-04T17:53:23.098Z,8.10
2022-10-04T17:58:30.916Z,8.00
2022-10-04T18:03:37.542Z,7.90
2022-10-04T18:09:08.064Z,7.90
2022-10-04T18:14:42.513Z,7.90
2022-10-04T18:20:05.391Z,7.80
2022-10-04T18:25:14.441Z,7.80
2022-10-04T18:30:23.564Z,7.70
2022-10-04T18:35:34.455Z,7.70
2022-10-04T18:40:55.474Z,7.70
2022-10-04T18:46:05.194Z,7.60
2022-10-04T18:51:31.204Z,7.60
2022-10-04T18:56:41.113Z,7.60
2022-10-04T19:02:06.795Z,7.50
2022-10-04T19:07:27.445Z,7.50
2022-10-04T19:12:53.215Z,7.40
2022-10-04T19:18:22.311Z,7.30
2022-10-04T19:23:31.563Z,7.30
2022-10-04T19:28:36.456Z,7.30
2022-10-04T19:33:48.853Z,7.30
2022-10-04T19:38:54.463Z,7.30
2022-10-04T19:44:16.618Z,7.30
2022-10-04T19:49:42.752Z,7.20
2022-10-04T19:54:46.835Z,7.10
2022-10-04T19:59:50.845Z,7.10
2022-10-04T20:04:53.643Z,7.00
2022-10-04T20:10:25.762Z,7.00
2022-10-04T20:15:28.617Z,7.00
2022-10-04T20:20:43.634Z,7.00
2022-10-04T20:25:46.566Z,6.90
2022-10-04T20:31:01.269Z,6.80
2022-10-04T20:36:06.157Z,6.80
2022-10-04T20:41:29.071Z,6.90
2022-10-04T20:46:38.439Z,7.00
2022-10-04T20:51:47.994Z,7.00
2022-10-04T20:56:51.815Z,6.90
2022-10-04T21:02:12.264Z,7.10
2022-10-04T21:07:20.259Z,7.50
2022-10-04T21:12:35.224Z,7.40
2022-10-04T21:17:38.183Z,7.50
2022-10-04T21:22:41.402Z,7.60
2022-10-04T21:27:44.174Z,7.70
2022-10-04T21:32:47.025Z,7.80
2022-10-04T21:37:50.133Z,7.70
2022-10-04T21:42:53.955Z,7.90
2022-10-04T21:47:56.754Z,7.90
2022-10-04T21:53:00.120Z,7.80
2022-10-04T21:58:02.809Z,7.70
2022-10-04T22:03:05.683Z,7.60
2022-10-04T22:08:08.524Z,7.70
2022-10-04T22:13:11.405Z,7.60
2022-10-04T22:18:14.286Z,7.40
2022-10-04T22:23:21.084Z,7.30
2022-10-04T22:28:26.794Z,7.30
2022-10-04T22:33:38.373Z,7.10
2022-10-04T22:38:44.621Z,6.90
2022-10-04T22:43:49.887Z,7.00
2022-10-04T22:48:52.581Z,6.90
2022-10-04T22:53:56.484Z,6.80
2022-10-04T22:59:00.296Z,6.80
2022-10-04T23:04:04.251Z,6.70
2022-10-04T23:09:06.978Z,6.60
2022-10-04T23:14:09.988Z,6.40
2022-10-04T23:19:19.113Z,6.50
2022-10-04T23:24:23.226Z,6.40
2022-10-04T23:29:30.651Z,6.30
2022-10-04T23:34:38.156Z,6.20
2022-10-04T23:39:41.178Z,6.20
2022-10-04T23:44:44.017Z,6.20
2022-10-04T23:49:50.988Z,6.20
2022-10-04T23:54:54.721Z,6.10
